createdAt,value
2022-10-05T00:00:22.708Z,18.98
2022-10-05T00:02:52.443Z,18.98
2022-10-05T00:05:22.809Z,19.06
2022-10-05T00:07:52.122Z,19.10
2022-10-05T00:10:20.775Z,19.11
2022-10-05T00:12:48.882Z,19.11
2022-10-05T00:15:19.984Z,18.99
2022-10-05T00:17:48.311Z,18.89
2022-10-05T00:20:26.786Z,18.81
2022-10-05T00:23:01.013Z,18.88
2022-10-05T00:25:29.336Z,18.85
2022-10-05T00:28:00.165Z,18.94
2022-10-05T00:30:34.060Z,19.02
2022-10-05T00:33:02.134Z,19.11
2022-10-05T00:35:30.982Z,19.12
2022-10-05T00:37:58.997Z,19.22
2022-10-05T00:40:35.727Z,19.24
2022-10-05T00:43:16.745Z,19.30
2022-10-05T00:45:51.907Z,19.25
2022-10-05T00:48:48.592Z,19.21
2022-10-05T00:51:19.006Z,19.22
2022-10-05T00:54:09.355Z,19.26
2022-10-05T00:56:43.319Z,19.32
2022-10-05T00:59:48.562Z,19.21
2022-10-05T01:02:38.150Z,19.31
2022-10-05T01:05:26.202Z,19.39
2022-10-05T01:08:08.847Z,19.20
2022-10-05T01:10:51.741Z,19.10
2022-10-05T01:13:19.873Z,19.23
2022-10-05T01:16:08.567Z,19.19
2022-10-05T01:19:08.727Z,19.08
2022-10-05T01:21:49.778Z,19.06
2022-10-05T01:24:23.061Z,19.17
2022-10-05T01:27:15.536Z,19.19
2022-10-05T01:29:55.508Z,19.25
2022-10-05T01:32:43.865Z,19.17
2022-10-05T01:35:17.669Z,19.14
2022-10-05T01:38:06.775Z,19.01
2022-10-05T01:40:50.538Z,18.91
2022-10-05T01:43:17.976Z,18.90
2022-10-05T01:46:02.040Z,18.88
2022-10-05T01:48:39.094Z,18.93
2022-10-05T01:51:59.175Z,19.06
2022-10-05T01:54:54.486Z,19.17
2022-10-05T01:57:34.179Z,19.24
2022-10-05T02:00:01.785Z,19.26
2022-10-05T02:02:35.457Z,19.27
2022-10-05T02:05:07.063Z,19.23
2022-10-05T02:07:58.758Z,19.12
2022-10-05T02:10:40.958Z,19.28
2022-10-05T02:13:50.872Z,19.35
2022-10-05T02:16:28.746Z,19.40
2022-10-05T02:19:02.379Z,19.44
2022-10-05T02:21:34.274Z,19.42
2022-10-05T02:24:10.359Z,19.46
2022-10-05T02:26:40.718Z,19.47
2022-10-05T02:29:12.601Z,19.46
2022-10-05T02:32:22.989Z,19.48
2022-10-05T02:34:50.966Z,19.49
2022-10-05T02:37:43.795Z,19.52
2022-10-05T02:40:27.118Z,19.46
2022-10-05T02:43:09.024Z,19.45
2022-10-05T02:45:45.616Z,19.36
2022-10-05T02:48:22.496Z,19.35
2022-10-05T02:51:09.508Z,19.30
2022-10-05T02:53:59.389Z,19.31
2022-10-05T02:56:33.071Z,19.15
2022-10-05T02:59:09.950Z,19.19
2022-10-05T03:01:52.763Z,19.29
2022-10-05T03:04:47.921Z,19.43
2022-10-05T03:07:49.282Z,19.26
2022-10-05T03:10:21.818Z,19.31
2022-10-05T03:13:17.437Z,19.30
2022-10-05T03:16:01.770Z,19.25
2022-10-05T03:19:02.656Z,19.27
2022-10-05T03:21:45.436Z,19.33
2022-10-05T03:24:16.369Z,19.30
2022-10-05T03:26:48.163Z,19.34
2022-10-05T03:29:35.398Z,19.37
2022-10-05T03:32:06.131Z,19.32
2022-10-05T03:34:42.178Z,19.43
2022-10-05T03:37:22.011Z,19.26
2022-10-05T03:40:01.438Z,19.19
2022-10-05T03:42:58.886Z,19.21
2022-10-05T03:45:59.372Z,19.33
2022-10-05T03:48:38.670Z,19.33
2022-10-05T03:51:24.895Z,19.33
2022-10-05T03:54:10.959Z,19.19
2022-10-05T03:56:45.570Z,19.16
2022-10-05T03:59:41.822Z,19.27
2022-10-05T04:02:28.009Z,19.19
2022-10-05T04:05:03.845Z,18.93
2022-10-05T04:07:46.982Z,18.97
2022-10-05T04:10:24.124Z,19.05
2022-10-05T04:12:58.688Z,19.09
2022-10-05T04:15:54.899Z,19.12
2022-10-05T04:18:28.995Z,19.19
2022-10-05T04:21:12.199Z,19.25
2022-10-05T04:24:01.153Z,19.19
2022-10-05T04:26:48.844Z,19.00
2022-10-05T04:29:36.246Z,18.95
2022-10-05T04:32:15.994Z,18.93
2022-10-05T04:35:00.646Z,18.90
2022-10-05T04:37:54.116Z,18.95
2022-10-05T04:40:52.327Z,18.97
2022-10-05T04:43:40.863Z,18.98
2022-10-05T04:46:17.707Z,18.94
2022-10-05T04:49:06.168Z,18.82
2022-10-05T04:51:50.879Z,18.85
2022-10-05T04:54:43.653Z,18.68
2022-10-05T04:57:23.802Z,18.62
2022-10-05T05:00:01.181Z,18.65
2022-10-05T05:03:00.336Z,18.46
2022-10-05T05:05:34.836Z,18.62
2022-10-05T05:08:24.370Z,18.64
2022-10-05T05:11:16.863Z,18.72
2022-10-05T05:14:04.897Z,18.64
2022-10-05T05:16:49.786Z,18.78
2022-10-05T05:19:32.956Z,18.84
2022-10-05T05:22:07.239Z,18.83
2022-10-05T05:24:59.709Z,18.76
2022-10-05T05:27:47.067Z,18.74
2022-10-05T05:30:24.069Z,18.96
2022-10-05T05:32:59.155Z,18.99
2022-10-05T05:35:29.726Z,18.99
2022-10-05T05:38:19.137Z,19.04
2022-10-05T05:40:55.969Z,19.09
2022-10-05T05:43:27.172Z,19.07
2022-10-05T05:46:00.827Z,19.16
2022-10-05T05:48:43.615Z,19.24
2022-10-05T05:51:26.115Z,19.24
2022-10-05T05:53:58.031Z,19.23
2022-10-05T05:56:41.048Z,19.28
2022-10-05T05:59:20.240Z,19.37
2022-10-05T06:01:57.159Z,19.33
2022-10-05T06:04:52.896Z,19.36
2022-10-05T06:07:30.377Z,19.46
2022-10-05T06:10:25.055Z,19.47
2022-10-05T06:13:07.544Z,19.47
2022-10-05T06:15:44.216Z,19.51
2022-10-05T06:18:17.979Z,19.61
2022-10-05T06:20:48.935Z,19.43
2022-10-05T06:23:22.329Z,19.41
2022-10-05T06:26:05.988Z,19.46
2022-10-05T06:28:37.919Z,19.39
2022-10-05T06:31:09.311Z,19.28
2022-10-05T06:33:46.971Z,19.17
2022-10-05T06:36:35.088Z,19.34
2022-10-05T06:39:06.461Z,19.27
2022-10-05T06:41:39.926Z,19.48
2022-10-05T06:44:21.449Z,19.62
2022-10-05T06:47:18.613Z,19.58
2022-10-05T06:50:31.536Z,19.79
2022-10-05T06:53:20.976Z,20.02
2022-10-05T06:56:19.930Z,20.22
2022-10-05T06:59:12.386Z,20.39
2022-10-05T07:01:51.738Z,20.41
2022-10-05T07:04:26.168Z,20.64
2022-10-05T07:06:57.464Z,20.85
2022-10-05T07:09:32.608Z,21.00
2022-10-05T07:12:05.140Z,21.19
2022-10-05T07:14:59.014Z,21.30
2022-10-05T07:17:32.392Z,21.28
2022-10-05T07:20:32.775Z,21.32
2022-10-05T07:23:14.701Z,21.40
2022-10-05T07:26:16.021Z,21.34
2022-10-05T07:28:51.093Z,21.38
2022-10-05T07:31:24.584Z,21.64
2022-10-05T07:34:12.883Z,21.88
2022-10-05T07:37:02.942Z,22.04
2022-10-05T07:40:00.081Z,21.83
2022-10-05T07:42:50.472Z,21.87
2022-10-05T07:45:38.149Z,21.55
2022-10-05T07:48:21.118Z,21.56
2022-10-05T07:51:19.355Z,21.41
2022-10-05T07:53:56.832Z,21.56
2022-10-05T07:56:32.600Z,21.80
2022-10-05T07:59:07.875Z,22.09
2022-10-05T08:01:40.076Z,22.15
2022-10-05T08:04:17.792Z,22.16
2022-10-05T08:07:12.813Z,22.66
2022-10-05T08:09:47.369Z,23.30
2022-10-05T08:12:45.960Z,23.07
2022-10-05T08:15:21.995Z,23.00
2022-10-05T08:18:00.125Z,23.06
2022-10-05T08:20:46.394Z,23.12
2022-10-05T08:23:16.864Z,23.08
2022-10-05T08:26:09.766Z,22.67
2022-10-05T08:28:42.721Z,23.08
2022-10-05T08:31:16.346Z,23.12
2022-10-05T08:34:02.637Z,23.08
2022-10-05T08:36:39.990Z,22.96
2022-10-05T08:39:18.836Z,23.32
2022-10-05T08:42:05.756Z,23.49
2022-10-05T08:45:11.126Z,23.36
2022-10-05T08:47:50.978Z,23.67
2022-10-05T08:50:37.455Z,23.79
2022-10-05T08:53:32.024Z,23.71
2022-10-05T08:56:19.858Z,23.71
2022-10-05T08:59:07.000Z,23.08
2022-10-05T09:01:59.169Z,23.63
2022-10-05T09:04:30.332Z,24.31
2022-10-05T09:07:10.921Z,24.22
2022-10-05T09:10:13.257Z,24.44
2022-10-05T09:13:02.522Z,24.39
2022-10-05T09:15:48.320Z,24.61
2022-10-05T09:21:43.907Z,25.50
2022-10-05T09:24:15.227Z,25.77
2022-10-05T09:27:00.714Z,26.35
2022-10-05T09:29:34.436Z,26.30
2022-10-05T09:32:11.775Z,25.04
2022-10-05T09:35:09.713Z,24.90
2022-10-05T09:37:48.068Z,25.56
2022-10-05T09:40:53.103Z,24.90
2022-10-05T09:43:54.456Z,23.61
2022-10-05T09:46:42.316Z,23.52
2022-10-05T09:49:29.106Z,24.39
2022-10-05T09:52:19.192Z,25.37
2022-10-05T09:54:57.185Z,26.45
2022-10-05T09:57:59.672Z,25.71
2022-10-05T10:00:38.573Z,25.46
2022-10-05T10:03:24.737Z,25.36
2022-10-05T10:06:19.408Z,26.50
2022-10-05T10:09:19.107Z,27.98
2022-10-05T10:12:12.660Z,28.49
2022-10-05T10:15:12.131Z,28.25
2022-10-05T10:17:58.852Z,29.02
2022-10-05T10:20:48.848Z,29.12
2022-10-05T10:23:43.866Z,28.67
2022-10-05T10:26:45.763Z,28.46
2022-10-05T10:29:37.901Z,29.83
2022-10-05T10:32:28.093Z,31.32
2022-10-05T10:35:19.537Z,31.19
2022-10-05T10:37:55.481Z,30.48
2022-10-05T10:40:42.563Z,29.55
2022-10-05T10:43:47.543Z,28.29
2022-10-05T10:46:59.736Z,30.24
2022-10-05T10:49:46.170Z,29.69
2022-10-05T10:52:53.869Z,28.78
2022-10-05T10:55:38.558Z,28.22
2022-10-05T10:58:21.024Z,27.16
2022-10-05T11:01:06.700Z,27.62
2022-10-05T11:03:54.560Z,30.20
2022-10-05T11:06:34.410Z,30.63
2022-10-05T11:09:24.046Z,30.70
2022-10-05T11:12:18.040Z,30.83
2022-10-05T11:15:20.122Z,29.16
2022-10-05T11:18:02.979Z,29.76
2022-10-05T11:20:56.322Z,29.93
2022-10-05T11:24:01.321Z,28.65
2022-10-05T11:26:50.630Z,28.68
2022-10-05T11:29:43.895Z,28.01
2022-10-05T11:32:39.587Z,29.12
2022-10-05T11:35:38.488Z,30.40
2022-10-05T11:38:25.182Z,30.64
2022-10-05T11:40:52.781Z,30.15
2022-10-05T11:43:48.500Z,30.95
2022-10-05T11:46:16.624Z,31.62
2022-10-05T11:49:03.122Z,31.84
2022-10-05T11:51:39.854Z,31.19
2022-10-05T11:54:52.107Z,29.47
2022-10-05T11:57:34.985Z,28.57
2022-10-05T12:00:12.957Z,28.82
2022-10-05T12:03:07.044Z,27.12
2022-10-05T12:06:17.061Z,26.97
2022-10-05T12:09:09.611Z,26.29
2022-10-05T12:11:57.959Z,25.83
2022-10-05T12:14:48.094Z,24.83
2022-10-05T12:17:43.859Z,25.06
2022-10-05T12:20:20.468Z,24.77
2022-10-05T12:22:58.955Z,25.15
2022-10-05T12:25:59.625Z,24.72
2022-10-05T12:28:38.207Z,25.16
2022-10-05T12:31:34.689Z,25.26
2022-10-05T12:34:23.430Z,24.94
2022-10-05T12:37:05.559Z,25.36
2022-10-05T12:40:08.880Z,25.30
2022-10-05T12:42:55.204Z,25.41
2022-10-05T12:45:47.467Z,25.45
2022-10-05T12:48:47.231Z,26.37
2022-10-05T12:51:35.939Z,26.61
2022-10-05T12:54:36.547Z,27.87
2022-10-05T12:57:43.097Z,28.29
2022-10-05T13:00:22.468Z,27.69
2022-10-05T13:03:20.830Z,28.63
2022-10-05T13:05:52.061Z,28.04
2022-10-05T13:08:38.822Z,28.34
2022-10-05T13:11:59.056Z,28.02
2022-10-05T13:15:06.704Z,28.12
2022-10-05T13:17:45.880Z,26.97
2022-10-05T13:20:28.254Z,28.05
2022-10-05T13:23:22.736Z,27.85
2022-10-05T13:26:08.938Z,28.38
2022-10-05T13:28:53.571Z,27.68
2022-10-05T13:31:27.433Z,27.01
2022-10-05T13:34:13.867Z,27.21
2022-10-05T13:37:06.484Z,29.06
2022-10-05T13:40:32.312Z,28.37
2022-10-05T13:43:06.291Z,28.19
2022-10-05T13:45:52.668Z,28.52
2022-10-05T13:48:57.203Z,26.76
2022-10-05T13:51:36.020Z,26.46
2022-10-05T13:54:21.535Z,26.31
2022-10-05T13:56:54.545Z,26.53
2022-10-05T13:59:36.096Z,26.42
2022-10-05T14:02:12.596Z,27.35
2022-10-05T14:04:51.246Z,26.66
2022-10-05T14:07:29.805Z,27.76
2022-10-05T14:09:59.729Z,27.78
2022-10-05T14:12:28.375Z,29.52
2022-10-05T14:14:58.448Z,30.20
2022-10-05T14:17:33.435Z,31.80
2022-10-05T14:20:03.515Z,33.55
2022-10-05T14:22:41.590Z,34.17
2022-10-05T14:25:09.507Z,33.50
2022-10-05T14:27:58.632Z,32.79
2022-10-05T14:30:28.998Z,33.96
2022-10-05T14:33:05.683Z,32.66
2022-10-05T14:35:51.803Z,34.06
2022-10-05T14:38:29.474Z,33.30
2022-10-05T14:41:19.085Z,33.18
2022-10-05T14:44:09.593Z,32.88
2022-10-05T14:46:38.673Z,33.59
2022-10-05T14:49:27.459Z,32.43
2022-10-05T14:51:56.672Z,31.78
2022-10-05T14:54:41.257Z,30.83
2022-10-05T14:57:37.578Z,31.07
2022-10-05T15:00:13.497Z,32.64
2022-10-05T15:03:03.608Z,31.77
2022-10-05T15:05:55.979Z,31.65
2022-10-05T15:08:45.324Z,30.43
2022-10-05T15:11:13.080Z,30.73
2022-10-05T15:13:47.569Z,31.78
2022-10-05T15:16:15.368Z,32.41
2022-10-05T15:19:08.304Z,32.86
2022-10-05T15:21:55.310Z,30.81
2022-10-05T15:24:27.003Z,31.49
2022-10-05T15:27:01.202Z,31.60
2022-10-05T15:29:38.552Z,30.33
2022-10-05T15:32:28.959Z,29.55
2022-10-05T15:35:36.854Z,28.43
2022-10-05T15:38:27.636Z,26.57
2022-10-05T15:41:14.877Z,26.38
2022-10-05T15:44:07.739Z,26.01
2022-10-05T15:46:45.271Z,25.78
2022-10-05T15:49:37.637Z,25.77
2022-10-05T15:52:30.489Z,25.26
2022-10-05T15:55:20.207Z,25.06
2022-10-05T15:57:57.807Z,24.93
2022-10-05T16:00:27.414Z,24.85
2022-10-05T16:03:24.826Z,24.68
2022-10-05T16:06:20.809Z,24.17
2022-10-05T16:09:04.491Z,24.26
2022-10-05T16:11:32.524Z,24.06
2022-10-05T16:14:10.392Z,24.18
2022-10-05T16:17:02.728Z,24.22
2022-10-05T16:19:30.897Z,23.92
2022-10-05T16:22:25.331Z,23.70
2022-10-05T16:24:59.742Z,23.73
2022-10-05T16:27:36.607Z,23.58
2022-10-05T16:30:16.625Z,23.51
2022-10-05T16:33:36.285Z,23.41
2022-10-05T16:36:41.443Z,23.05
2022-10-05T16:39:25.366Z,22.97
2022-10-05T16:42:11.967Z,22.89
2022-10-05T16:45:07.198Z,22.89
2022-10-05T16:47:53.957Z,22.94
2022-10-05T16:50:49.680Z,22.67
2022-10-05T16:53:45.986Z,22.53
2022-10-05T16:56:17.293Z,22.36
2022-10-05T16:58:44.758Z,22.51
2022-10-05T17:01:15.191Z,22.48
2022-10-05T17:03:49.805Z,22.52
2022-10-05T17:06:37.395Z,22.30
2022-10-05T17:09:35.139Z,22.40
2022-10-05T17:12:26.823Z,22.53
2022-10-05T17:15:29.304Z,22.22
2022-10-05T17:18:18.772Z,22.35
2022-10-05T17:20:54.985Z,22.36
2022-10-05T17:23:41.843Z,22.30
2022-10-05T17:26:40.340Z,22.16
2022-10-05T17:29:28.011Z,22.30
2022-10-05T17:32:20.645Z,22.23
2022-10-05T17:35:00.665Z,22.21
2022-10-05T17:37:29.504Z,22.32
2022-10-05T17:39:59.037Z,22.20
2022-10-05T17:42:26.783Z,22.19
2022-10-05T17:44:58.599Z,22.09
2022-10-05T17:48:30.871Z,21.92
2022-10-05T17:51:17.391Z,21.86
2022-10-05T17:54:04.010Z,21.81
2022-10-05T17:56:54.366Z,21.80
2022-10-05T17:59:46.482Z,21.67
2022-10-05T18:02:37.516Z,21.57
2022-10-05T18:05:05.501Z,21.30
2022-10-05T18:07:34.950Z,21.26
2022-10-05T18:10:12.277Z,21.25
2022-10-05T18:12:59.372Z,21.30
2022-10-05T18:15:27.595Z,21.19
2022-10-05T18:17:59.641Z,21.18
2022-10-05T18:20:33.034Z,21.21
2022-10-05T18:23:03.719Z,21.18
2022-10-05T18:26:02.353Z,21.16
2022-10-05T18:29:14.024Z,21.02
2022-10-05T18:31:48.043Z,20.72
2022-10-05T18:34:31.337Z,20.61
2022-10-05T18:37:10.582Z,20.57
2022-10-05T18:40:09.813Z,20.40
2022-10-05T18:43:11.840Z,20.36
2022-10-05T18:46:08.127Z,20.33
2022-10-05T18:48:59.878Z,20.40
2022-10-05T18:51:39.774Z,20.33
2022-10-05T18:54:31.342Z,20.41
2022-10-05T18:57:01.474Z,20.31
2022-10-05T18:59:58.581Z,20.19
2022-10-05T19:02:44.281Z,20.04
2022-10-05T19:05:48.118Z,20.06
2022-10-05T19:08:44.486Z,20.10
2022-10-05T19:11:19.141Z,20.24
2022-10-05T19:13:56.092Z,20.10
2022-10-05T19:16:26.647Z,20.06
2022-10-05T19:19:32.470Z,19.92
2022-10-05T19:22:09.461Z,19.93
2022-10-05T19:25:09.435Z,19.95
2022-10-05T19:27:55.553Z,19.88
2022-10-05T19:30:27.311Z,19.90
2022-10-05T19:33:16.622Z,19.74
2022-10-05T19:36:23.970Z,19.63
2022-10-05T19:39:06.951Z,19.54
2022-10-05T19:42:07.029Z,19.48
2022-10-05T19:44:35.437Z,19.68
2022-10-05T19:47:24.073Z,19.69
2022-10-05T19:49:51.666Z,19.57
2022-10-05T19:52:37.784Z,19.45
2022-10-05T19:55:26.427Z,19.36
2022-10-05T19:58:01.333Z,19.35
2022-10-05T20:00:35.380Z,19.32
2022-10-05T20:03:18.826Z,19.42
2022-10-05T20:05:46.614Z,19.24
2022-10-05T20:08:19.497Z,19.25
2022-10-05T20:11:11.971Z,19.18
2022-10-05T20:13:43.679Z,19.12
2022-10-05T20:16:35.739Z,19.11
2022-10-05T20:19:50.190Z,19.17
2022-10-05T20:22:46.622Z,19.31
2022-10-05T20:25:17.631Z,19.34
2022-10-05T20:27:55.579Z,19.34
2022-10-05T20:30:28.988Z,19.30
2022-10-05T20:33:04.716Z,19.20
2022-10-05T20:35:32.846Z,19.19
2022-10-05T20:38:00.906Z,19.00
2022-10-05T20:40:30.742Z,18.89
2022-10-05T20:42:59.013Z,18.86
2022-10-05T20:45:27.105Z,18.90
2022-10-05T20:47:55.722Z,18.77
2022-10-05T20:50:23.273Z,18.78
2022-10-05T20:52:53.103Z,18.75
2022-10-05T20:55:21.281Z,18.66
2022-10-05T20:57:49.210Z,18.56
2022-10-05T21:00:16.739Z,18.58
2022-10-05T21:02:46.756Z,18.69
2022-10-05T21:05:15.614Z,18.78
2022-10-05T21:07:43.152Z,18.80
2022-10-05T21:10:11.755Z,18.65
2022-10-05T21:12:40.115Z,18.51
2022-10-05T21:15:08.620Z,18.44
2022-10-05T21:17:36.400Z,18.44
2022-10-05T21:20:04.611Z,18.28
2022-10-05T21:22:35.565Z,18.12
2022-10-05T21:25:03.108Z,18.01
2022-10-05T21:27:32.617Z,18.04
2022-10-05T21:30:00.850Z,18.12
2022-10-05T21:32:28.795Z,18.25
2022-10-05T21:34:57.311Z,18.30
2022-10-05T21:37:25.398Z,18.28
2022-10-05T21:39:53.745Z,18.25
2022-10-05T21:42:23.518Z,18.19
2022-10-05T21:44:51.201Z,18.32
2022-10-05T21:47:19.617Z,18.31
2022-10-05T21:49:47.599Z,18.39
2022-10-05T21:52:15.190Z,18.32
2022-10-05T21:54:43.255Z,18.02
2022-10-05T21:57:11.992Z,17.84
2022-10-05T21:59:43.041Z,17.99
2022-10-05T22:02:12.018Z,18.00
2022-10-05T22:04:39.878Z,17.93
2022-10-05T22:07:19.760Z,17.79
2022-10-05T22:09:51.649Z,17.75
2022-10-05T22:12:20.250Z,17.75
2022-10-05T22:14:48.789Z,17.74
2022-10-05T22:17:23.726Z,17.82
2022-10-05T22:19:51.671Z,17.75
2022-10-05T22:22:19.639Z,17.82
2022-10-05T22:24:47.716Z,17.88
2022-10-05T22:27:16.715Z,17.79
2022-10-05T22:29:44.550Z,17.65
2022-10-05T22:32:12.122Z,17.59
2022-10-05T22:34:40.711Z,17.71
2022-10-05T22:37:13.092Z,17.78
2022-10-05T22:39:42.748Z,17.82
2022-10-05T22:42:10.792Z,17.88
2022-10-05T22:44:39.803Z,17.83
2022-10-05T22:47:07.599Z,17.85
2022-10-05T22:49:35.139Z,17.91
2022-10-05T22:52:03.159Z,17.96
2022-10-05T22:54:34.269Z,17.78
2022-10-05T22:57:04.358Z,17.72
2022-10-05T22:59:32.071Z,17.65
2022-10-05T23:01:59.779Z,17.51
2022-10-05T23:04:27.785Z,17.46
2022-10-05T23:06:56.334Z,17.44
2022-10-05T23:09:24.334Z,17.32
2022-10-05T23:11:54.277Z,17.44
2022-10-05T23:14:22.397Z,17.47
2022-10-05T23:16:50.215Z,17.36
2022-10-05T23:19:18.467Z,17.47
2022-10-05T23:21:46.127Z,17.43
2022-10-05T23:24:13.748Z,17.47
2022-10-05T23:26:41.871Z,17.28
2022-10-05T23:29:10.072Z,17.26
2022-10-05T23:31:37.697Z,17.34
2022-10-05T23:34:05.232Z,17.45
2022-10-05T23:36:33.373Z,17.52
2022-10-05T23:39:01.384Z,17.53
2022-10-05T23:41:28.956Z,17.54
2022-10-05T23:43:57.147Z,17.56
2022-10-05T23:46:24.805Z,17.49
2022-10-05T23:48:53.404Z,17.56
2022-10-05T23:51:21.590Z,17.52
2022-10-05T23:53:49.234Z,17.39
2022-10-05T23:56:17.326Z,17.43
2022-10-05T23:58:45.211Z,17.33
